sensor_id;sensor_type;location;lat;lon;timestamp;temperature;humidity
59067;DHT22;44854;50.838;4.438;2024-03-29T05:10:54;9.40;99.90
59067;DHT22;44854;50.838;4.438;2024-03-29T05:13:20;9.40;99.90
59067;DHT22;44854;50.838;4.438;2024-03-29T05:15:47;9.40;99.90
59067;DHT22;44854;50.838;4.438;2024-03-29T05:18:13;9.40;99.90
59067;DHT22;44854;50.838;4.438;2024-03-29T05:20:38;9.40;99.90
59067;DHT22;44854;50.838;4.438;2024-03-29T05:23:12;9.40;99.90
59067;DHT22;44854;50.838;4.438;2024-03-29T05:25:42;9.50;99.90
59067;DHT22;44854;50.838;4.438;2024-03-29T05:28:09;9.50;99.90
59067;DHT22;44854;50.838;4.438;2024-03-29T05:30:35;9.60;99.90
59067;DHT22;44854;50.838;4.438;2024-03-29T05:33:04;9.60;99.90
59067;DHT22;44854;50.838;4.438;2024-03-29T05:35:30;9.50;99.90
59067;DHT22;44854;50.838;4.438;2024-03-29T05:37:56;9.50;99.90
59067;DHT22;44854;50.838;4.438;2024-03-29T05:40:22;9.50;99.90
59067;DHT22;44854;50.838;4.438;2024-03-29T05:42:54;9.40;99.90
59067;DHT22;44854;50.838;4.438;2024-03-29T05:45:30;9.50;99.90
59067;DHT22;44854;50.838;4.438;2024-03-29T05:47:58;9.40;99.90
59067;DHT22;44854;50.838;4.438;2024-03-29T05:50:24;9.40;99.90
59067;DHT22;44854;50.838;4.438;2024-03-29T05:52:51;9.40;99.90
59067;DHT22;44854;50.838;4.438;2024-03-29T05:55:18;9.50;99.90
59067;DHT22;44854;50.838;4.438;2024-03-29T05:57:44;9.60;99.90
59067;DHT22;44854;50.838;4.438;2024-03-29T06:00:14;9.60;99.90
59067;DHT22;44854;50.838;4.438;2024-03-29T06:02:40;9.60;99.90
59067;DHT22;44854;50.838;4.438;2024-03-29T06:05:06;9.60;99.90
59067;DHT22;44854;50.838;4.438;2024-03-29T06:07:32;9.70;99.90
59067;DHT22;44854;50.838;4.438;2024-03-29T06:10:02;9.70;99.90
59067;DHT22;44854;50.838;4.438;2024-03-29T06:12:33;9.80;99.90
59067;DHT22;44854;50.838;4.438;2024-03-29T06:15:00;9.70;99.90
59067;DHT22;44854;50.838;4.438;2024-03-29T06:17:44;9.70;99.90
59067;DHT22;44854;50.838;4.438;2024-03-29T06:20:12;9.80;99.90
59067;DHT22;44854;50.838;4.438;2024-03-29T06:22:38;9.80;99.90
59067;DHT22;44854;50.838;4.438;2024-03-29T06:25:04;9.80;99.90
59067;DHT22;44854;50.838;4.438;2024-03-29T06:27:34;9.80;99.90
59067;DHT22;44854;50.838;4.438;2024-03-29T06:30:00;9.90;99.90
59067;DHT22;44854;50.838;4.438;2024-03-29T06:32:26;9.90;99.90
59067;DHT22;44854;50.838;4.438;2024-03-29T06:34:52;9.90;99.90
59067;DHT22;44854;50.838;4.438;2024-03-29T06:37:18;9.90;99.90
59067;DHT22;44854;50.838;4.438;2024-03-29T06:39:46;9.90;99.90
59067;DHT22;44854;50.838;4.438;2024-03-29T06:42:11;10.00;99.90
59067;DHT22;44854;50.838;4.438;2024-03-29T06:44:37;10.10;99.90
59067;DHT22;44854;50.838;4.438;2024-03-29T06:47:03;10.10;99.90
59067;DHT22;44854;50.838;4.438;2024-03-29T06:49:29;10.10;99.90
59067;DHT22;44854;50.838;4.438;2024-03-29T06:51:55;10.10;99.90
59067;DHT22;44854;50.838;4.438;2024-03-29T06:54:23;10.20;99.90
59067;DHT22;44854;50.838;4.438;2024-03-29T06:56:52;10.30;99.90
59067;DHT22;44854;50.838;4.438;2024-03-29T06:59:19;10.10;99.90
59067;DHT22;44854;50.838;4.438;2024-03-29T07:01:45;10.20;99.90
59067;DHT22;44854;50.838;4.438;2024-03-29T07:04:13;10.30;99.90
59067;DHT22;44854;50.838;4.438;2024-03-29T07:06:38;10.40;99.90
59067;DHT22;44854;50.838;4.438;2024-03-29T07:09:05;10.60;99.90
59067;DHT22;44854;50.838;4.438;2024-03-29T07:11:31;10.50;99.90
59067;DHT22;44854;50.838;4.438;2024-03-29T07:13:57;10.60;99.90
59067;DHT22;44854;50.838;4.438;2024-03-29T07:16:23;10.60;99.90
59067;DHT22;44854;50.838;4.438;2024-03-29T07:18:48;10.70;99.90
59067;DHT22;44854;50.838;4.438;2024-03-29T07:21:14;10.60;99.90
59067;DHT22;44854;50.838;4.438;2024-03-29T07:23:40;10.60;99.90
59067;DHT22;44854;50.838;4.438;2024-03-29T07:26:05;10.60;99.90
59067;DHT22;44854;50.838;4.438;2024-03-29T07:28:31;10.60;99.90
59067;DHT22;44854;50.838;4.438;2024-03-29T07:31:15;10.60;99.90
59067;DHT22;44854;50.838;4.438;2024-03-29T07:33:41;10.60;99.90
59067;DHT22;44854;50.838;4.438;2024-03-29T07:36:07;10.90;99.90
59067;DHT22;44854;50.838;4.438;2024-03-29T07:38:35;10.70;99.90
59067;DHT22;44854;50.838;4.438;2024-03-29T07:41:00;10.80;99.90
59067;DHT22;44854;50.838;4.438;2024-03-29T07:43:38;10.70;99.90
59067;DHT22;44854;50.838;4.438;2024-03-29T07:46:04;10.80;99.90
59067;DHT22;44854;50.838;4.438;2024-03-29T07:48:31;10.70;99.90
59067;DHT22;44854;50.838;4.438;2024-03-29T07:50:56;10.70;99.90
59067;DHT22;44854;50.838;4.438;2024-03-29T07:53:22;10.80;99.90
59067;DHT22;44854;50.838;4.438;2024-03-29T07:55:49;10.80;99.90
59067;DHT22;44854;50.838;4.438;2024-03-29T07:58:15;10.80;99.90
59067;DHT22;44854;50.838;4.438;2024-03-29T08:00:42;10.90;99.90
59067;DHT22;44854;50.838;4.438;2024-03-29T08:03:08;10.90;99.90
59067;DHT22;44854;50.838;4.438;2024-03-29T08:05:34;10.90;99.90
59067;DHT22;44854;50.838;4.438;2024-03-29T08:08:00;11.00;99.90
59067;DHT22;44854;50.838;4.438;2024-03-29T08:10:26;11.10;99.90
59067;DHT22;44854;50.838;4.438;2024-03-29T08:12:52;11.10;99.90
59067;DHT22;44854;50.838;4.438;2024-03-29T08:15:18;11.10;99.90
59067;DHT22;44854;50.838;4.438;2024-03-29T08:17:44;11.10;99.90
59067;DHT22;44854;50.838;4.438;2024-03-29T08:20:13;11.10;99.90
59067;DHT22;44854;50.838;4.438;2024-03-29T08:22:38;11.10;99.90
59067;DHT22;44854;50.838;4.438;2024-03-29T08:25:04;11.10;99.90
59067;DHT22;44854;50.838;4.438;2024-03-29T08:27:30;11.30;99.90
59067;DHT22;44854;50.838;4.438;2024-03-29T08:29:56;11.30;99.90
59067;DHT22;44854;50.838;4.438;2024-03-29T08:32:29;11.30;99.90
59067;DHT22;44854;50.838;4.438;2024-03-29T08:34:55;11.30;99.90
59067;DHT22;44854;50.838;4.438;2024-03-29T08:37:21;11.20;99.90
59067;DHT22;44854;50.838;4.438;2024-03-29T08:39:47;11.30;99.90
59067;DHT22;44854;50.838;4.438;2024-03-29T08:42:13;11.40;99.90
59067;DHT22;44854;50.838;4.438;2024-03-29T08:44:38;11.40;99.90
59067;DHT22;44854;50.838;4.438;2024-03-29T08:47:05;11.50;99.90
59067;DHT22;44854;50.838;4.438;2024-03-29T08:49:30;11.70;99.90
59067;DHT22;44854;50.838;4.438;2024-03-29T08:51:57;11.80;99.90
59067;DHT22;44854;50.838;4.438;2024-03-29T08:54:24;11.90;99.90
59067;DHT22;44854;50.838;4.438;2024-03-29T08:56:50;11.90;99.90
59067;DHT22;44854;50.838;4.438;2024-03-29T08:59:16;11.80;99.90
59067;DHT22;44854;50.838;4.438;2024-03-29T09:01:44;11.80;99.90
59067;DHT22;44854;50.838;4.438;2024-03-29T09:04:10;11.80;99.90
59067;DHT22;44854;50.838;4.438;2024-03-29T09:06:39;11.80;99.90
59067;DHT22;44854;50.838;4.438;2024-03-29T09:09:08;11.80;99.90
59067;DHT22;44854;50.838;4.438;2024-03-29T09:11:35;11.90;99.90
59067;DHT22;44854;50.838;4.438;2024-03-29T09:14:01;12.10;99.90
59067;DHT22;44854;50.838;4.438;2024-03-29T09:16:28;12.30;99.90
59067;DHT22;44854;50.838;4.438;2024-03-29T09:18:55;12.20;99.90
59067;DHT22;44854;50.838;4.438;2024-03-29T09:21:21;12.40;99.90
59067;DHT22;44854;50.838;4.438;2024-03-29T09:23:47;12.20;99.90
59067;DHT22;44854;50.838;4.438;2024-03-29T09:26:15;12.40;99.90
59067;DHT22;44854;50.838;4.438;2024-03-29T09:28:41;12.40;99.90
59067;DHT22;44854;50.838;4.438;2024-03-29T09:31:07;12.70;99.90
59067;DHT22;44854;50.838;4.438;2024-03-29T09:33:33;12.80;99.90
59067;DHT22;44854;50.838;4.438;2024-03-29T09:35:59;12.90;99.90
59067;DHT22;44854;50.838;4.438;2024-03-29T09:38:25;13.20;99.90
59067;DHT22;44854;50.838;4.438;2024-03-29T09:41:17;13.20;99.90
59067;DHT22;44854;50.838;4.438;2024-03-29T09:43:43;13.30;99.90
59067;DHT22;44854;50.838;4.438;2024-03-29T09:46:12;13.30;99.90
59067;DHT22;44854;50.838;4.438;2024-03-29T09:48:40;13.30;99.90
59067;DHT22;44854;50.838;4.438;2024-03-29T09:51:21;13.30;99.90
59067;DHT22;44854;50.838;4.438;2024-03-29T09:53:47;13.40;99.90
59067;DHT22;44854;50.838;4.438;2024-03-29T09:56:14;13.40;99.90
59067;DHT22;44854;50.838;4.438;2024-03-29T09:58:40;13.60;99.90
59067;DHT22;44854;50.838;4.438;2024-03-29T10:01:07;13.40;99.90
59067;DHT22;44854;50.838;4.438;2024-03-29T10:03:40;13.60;99.90
59067;DHT22;44854;50.838;4.438;2024-03-29T10:06:06;13.80;99.90
59067;DHT22;44854;50.838;4.438;2024-03-29T10:08:38;13.90;99.90
59067;DHT22;44854;50.838;4.438;2024-03-29T10:11:03;13.70;99.90
59067;DHT22;44854;50.838;4.438;2024-03-29T10:13:29;13.90;99.90
59067;DHT22;44854;50.838;4.438;2024-03-29T10:15:56;13.90;99.90
59067;DHT22;44854;50.838;4.438;2024-03-29T10:18:26;13.90;99.90
59067;DHT22;44854;50.838;4.438;2024-03-29T10:21:03;13.90;99.90
59067;DHT22;44854;50.838;4.438;2024-03-29T10:23:30;14.00;99.90
59067;DHT22;44854;50.838;4.438;2024-03-29T10:25:55;14.00;99.90
59067;DHT22;44854;50.838;4.438;2024-03-29T10:28:22;14.30;99.90
59067;DHT22;44854;50.838;4.438;2024-03-29T10:30:49;14.50;99.90
59067;DHT22;44854;50.838;4.438;2024-03-29T10:33:16;14.50;99.90
59067;DHT22;44854;50.838;4.438;2024-03-29T10:35:43;14.50;99.90
59067;DHT22;44854;50.838;4.438;2024-03-29T10:38:11;14.30;99.90
59067;DHT22;44854;50.838;4.438;2024-03-29T10:40:41;14.40;99.90
59067;DHT22;44854;50.838;4.438;2024-03-29T10:43:11;14.40;99.90
59067;DHT22;44854;50.838;4.438;2024-03-29T10:45:42;14.40;99.90
59067;DHT22;44854;50.838;4.438;2024-03-29T10:48:09;14.50;99.90
59067;DHT22;44854;50.838;4.438;2024-03-29T10:50:38;14.50;99.90
59067;DHT22;44854;50.838;4.438;2024-03-29T10:53:09;14.70;99.90
59067;DHT22;44854;50.838;4.438;2024-03-29T10:55:36;14.60;99.90
59067;DHT22;44854;50.838;4.438;2024-03-29T10:58:05;14.70;99.90
59067;DHT22;44854;50.838;4.438;2024-03-29T11:00:38;14.70;99.90
59067;DHT22;44854;50.838;4.438;2024-03-29T11:06:12;14.60;99.90
59067;DHT22;44854;50.838;4.438;2024-03-29T11:08:39;14.50;99.90
59067;DHT22;44854;50.838;4.438;2024-03-29T11:11:12;14.70;99.90
59067;DHT22;44854;50.838;4.438;2024-03-29T11:13:53;14.80;99.90
59067;DHT22;44854;50.838;4.438;2024-03-29T11:16:24;14.90;99.90
59067;DHT22;44854;50.838;4.438;2024-03-29T11:18:51;15.10;99.90
59067;DHT22;44854;50.838;4.438;2024-03-29T11:21:18;14.90;99.90
59067;DHT22;44854;50.838;4.438;2024-03-29T11:23:48;15.10;99.90
59067;DHT22;44854;50.838;4.438;2024-03-29T11:26:15;15.20;99.90
59067;DHT22;44854;50.838;4.438;2024-03-29T11:28:41;15.00;99.90
59067;DHT22;44854;50.838;4.438;2024-03-29T11:31:14;15.20;99.90
59067;DHT22;44854;50.838;4.438;2024-03-29T11:36:15;15.30;99.90
59067;DHT22;44854;50.838;4.438;2024-03-29T11:38:42;15.40;99.90
59067;DHT22;44854;50.838;4.438;2024-03-29T11:41:13;15.50;99.90
59067;DHT22;44854;50.838;4.438;2024-03-29T11:43:39;15.60;99.90
59067;DHT22;44854;50.838;4.438;2024-03-29T11:46:07;15.80;99.90
59067;DHT22;44854;50.838;4.438;2024-03-29T11:48:34;15.90;99.90
59067;DHT22;44854;50.838;4.438;2024-03-29T11:51:01;16.10;99.90
59067;DHT22;44854;50.838;4.438;2024-03-29T11:53:28;16.10;99.90
59067;DHT22;44854;50.838;4.438;2024-03-29T11:55:56;16.00;99.90
59067;DHT22;44854;50.838;4.438;2024-03-29T11:58:23;16.10;99.90
59067;DHT22;44854;50.838;4.438;2024-03-29T12:00:52;16.10;99.90
59067;DHT22;44854;50.838;4.438;2024-03-29T12:03:20;16.00;99.90
59067;DHT22;44854;50.838;4.438;2024-03-29T12:05:51;16.10;99.90
59067;DHT22;44854;50.838;4.438;2024-03-29T12:08:20;16.00;99.90
59067;DHT22;44854;50.838;4.438;2024-03-29T12:10:47;16.00;99.90
59067;DHT22;44854;50.838;4.438;2024-03-29T12:13:16;16.00;99.90
59067;DHT22;44854;50.838;4.438;2024-03-29T12:15:42;16.20;99.90
59067;DHT22;44854;50.838;4.438;2024-03-29T12:18:08;16.30;99.90
59067;DHT22;44854;50.838;4.438;2024-03-29T12:20:37;16.30;99.90
59067;DHT22;44854;50.838;4.438;2024-03-29T12:23:05;16.20;99.90
59067;DHT22;44854;50.838;4.438;2024-03-29T12:25:33;16.00;99.90
59067;DHT22;44854;50.838;4.438;2024-03-29T12:27:59;16.00;99.90
59067;DHT22;44854;50.838;4.438;2024-03-29T12:30:26;16.00;99.90
59067;DHT22;44854;50.838;4.438;2024-03-29T12:33:18;16.30;99.90
59067;DHT22;44854;50.838;4.438;2024-03-29T12:35:49;16.20;99.90
59067;DHT22;44854;50.838;4.438;2024-03-29T12:38:24;16.20;99.90
59067;DHT22;44854;50.838;4.438;2024-03-29T12:40:50;16.40;99.90
59067;DHT22;44854;50.838;4.438;2024-03-29T12:43:20;16.60;99.90
59067;DHT22;44854;50.838;4.438;2024-03-29T12:45:48;16.80;99.90
59067;DHT22;44854;50.838;4.438;2024-03-29T12:48:19;16.70;99.90
59067;DHT22;44854;50.838;4.438;2024-03-29T12:50:46;16.70;99.90
59067;DHT22;44854;50.838;4.438;2024-03-29T12:53:13;16.50;99.90
59067;DHT22;44854;50.838;4.438;2024-03-29T12:55:44;16.30;99.90
59067;DHT22;44854;50.838;4.438;2024-03-29T12:58:14;16.10;99.90
59067;DHT22;44854;50.838;4.438;2024-03-29T13:00:42;16.00;99.90
59067;DHT22;44854;50.838;4.438;2024-03-29T13:03:08;16.00;99.90
59067;DHT22;44854;50.838;4.438;2024-03-29T13:05:37;16.00;99.90
59067;DHT22;44854;50.838;4.438;2024-03-29T13:08:07;16.30;99.90
59067;DHT22;44854;50.838;4.438;2024-03-29T13:10:38;16.30;99.90
59067;DHT22;44854;50.838;4.438;2024-03-29T13:13:05;16.40;99.90
59067;DHT22;44854;50.838;4.438;2024-03-29T13:15:33;16.30;99.90
59067;DHT22;44854;50.838;4.438;2024-03-29T13:17:59;16.10;99.90
59067;DHT22;44854;50.838;4.438;2024-03-29T13:20:26;16.20;99.90
59067;DHT22;44854;50.838;4.438;2024-03-29T13:22:52;16.20;99.90
59067;DHT22;44854;50.838;4.438;2024-03-29T13:25:20;16.40;99.90
59067;DHT22;44854;50.838;4.438;2024-03-29T13:27:48;16.40;99.90
59067;DHT22;44854;50.838;4.438;2024-03-29T13:30:14;16.50;99.90
59067;DHT22;44854;50.838;4.438;2024-03-29T13:32:41;16.60;99.90
59067;DHT22;44854;50.838;4.438;2024-03-29T13:35:08;16.70;99.90
59067;DHT22;44854;50.838;4.438;2024-03-29T13:37:44;16.70;99.90
59067;DHT22;44854;50.838;4.438;2024-03-29T13:40:13;16.40;99.90
59067;DHT22;44854;50.838;4.438;2024-03-29T13:42:39;16.40;99.90
59067;DHT22;44854;50.838;4.438;2024-03-29T13:45:06;16.40;99.90
59067;DHT22;44854;50.838;4.438;2024-03-29T13:47:40;16.40;99.90
59067;DHT22;44854;50.838;4.438;2024-03-29T13:50:06;16.50;99.90
59067;DHT22;44854;50.838;4.438;2024-03-29T13:52:33;16.60;99.90
59067;DHT22;44854;50.838;4.438;2024-03-29T13:54:59;16.80;99.90
59067;DHT22;44854;50.838;4.438;2024-03-29T13:57:26;16.70;99.90
59067;DHT22;44854;50.838;4.438;2024-03-29T13:59:52;16.30;99.90
59067;DHT22;44854;50.838;4.438;2024-03-29T14:02:19;16.20;99.90
59067;DHT22;44854;50.838;4.438;2024-03-29T14:04:46;16.50;99.90
59067;DHT22;44854;50.838;4.438;2024-03-29T14:07:14;16.60;99.90
59067;DHT22;44854;50.838;4.438;2024-03-29T14:09:41;16.30;99.90
59067;DHT22;44854;50.838;4.438;2024-03-29T14:12:07;16.40;99.90
59067;DHT22;44854;50.838;4.438;2024-03-29T14:14:33;16.50;99.90
59067;DHT22;44854;50.838;4.438;2024-03-29T14:16:59;16.50;99.90
59067;DHT22;44854;50.838;4.438;2024-03-29T14:19:34;16.50;99.90
59067;DHT22;44854;50.838;4.438;2024-03-29T14:22:00;16.60;99.90
59067;DHT22;44854;50.838;4.438;2024-03-29T14:24:26;16.50;99.90
59067;DHT22;44854;50.838;4.438;2024-03-29T14:26:53;16.50;99.90
59067;DHT22;44854;50.838;4.438;2024-03-29T14:29:20;16.50;99.90
59067;DHT22;44854;50.838;4.438;2024-03-29T14:31:49;16.60;99.90
59067;DHT22;44854;50.838;4.438;2024-03-29T14:34:16;16.70;99.90
59067;DHT22;44854;50.838;4.438;2024-03-29T14:36:43;16.90;99.90
59067;DHT22;44854;50.838;4.438;2024-03-29T14:39:08;16.90;99.90
59067;DHT22;44854;50.838;4.438;2024-03-29T14:41:35;16.80;99.90
59067;DHT22;44854;50.838;4.438;2024-03-29T14:44:02;16.50;99.90
59067;DHT22;44854;50.838;4.438;2024-03-29T14:46:28;16.50;99.90
59067;DHT22;44854;50.838;4.438;2024-03-29T14:48:54;16.50;99.90
59067;DHT22;44854;50.838;4.438;2024-03-29T14:51:19;16.50;99.90
59067;DHT22;44854;50.838;4.438;2024-03-29T14:53:47;16.60;99.90
59067;DHT22;44854;50.838;4.438;2024-03-29T14:56:16;16.70;99.90
59067;DHT22;44854;50.838;4.438;2024-03-29T14:58:42;16.80;99.90
59067;DHT22;44854;50.838;4.438;2024-03-29T15:01:08;16.80;99.90
59067;DHT22;44854;50.838;4.438;2024-03-29T15:03:34;16.80;99.90
59067;DHT22;44854;50.838;4.438;2024-03-29T15:06:00;16.90;99.90
59067;DHT22;44854;50.838;4.438;2024-03-29T15:08:26;17.00;99.90
59067;DHT22;44854;50.838;4.438;2024-03-29T15:11:01;17.00;99.90
59067;DHT22;44854;50.838;4.438;2024-03-29T15:13:27;16.90;99.90
59067;DHT22;44854;50.838;4.438;2024-03-29T15:15:59;16.90;99.90
59067;DHT22;44854;50.838;4.438;2024-03-29T15:18:25;16.90;99.90
59067;DHT22;44854;50.838;4.438;2024-03-29T15:20:55;16.90;99.90
59067;DHT22;44854;50.838;4.438;2024-03-29T15:23:21;16.70;99.90
59067;DHT22;44854;50.838;4.438;2024-03-29T15:25:51;16.60;99.90
59067;DHT22;44854;50.838;4.438;2024-03-29T15:28:17;16.40;99.90
59067;DHT22;44854;50.838;4.438;2024-03-29T15:30:43;16.60;99.90
59067;DHT22;44854;50.838;4.438;2024-03-29T15:33:17;16.60;99.90
59067;DHT22;44854;50.838;4.438;2024-03-29T15:35:43;16.70;99.90
59067;DHT22;44854;50.838;4.438;2024-03-29T15:38:08;16.70;99.90
59067;DHT22;44854;50.838;4.438;2024-03-29T15:40:37;16.60;99.90
59067;DHT22;44854;50.838;4.438;2024-03-29T15:43:03;16.50;99.90
59067;DHT22;44854;50.838;4.438;2024-03-29T15:45:29;16.50;99.90
59067;DHT22;44854;50.838;4.438;2024-03-29T15:47:54;16.60;99.90
59067;DHT22;44854;50.838;4.438;2024-03-29T15:50:20;16.70;99.90
59067;DHT22;44854;50.838;4.438;2024-03-29T15:52:46;16.60;99.90
59067;DHT22;44854;50.838;4.438;2024-03-29T15:55:11;16.60;99.90
59067;DHT22;44854;50.838;4.438;2024-03-29T15:57:37;16.60;99.90
59067;DHT22;44854;50.838;4.438;2024-03-29T16:00:03;16.60;99.90
59067;DHT22;44854;50.838;4.438;2024-03-29T16:02:31;16.60;99.90
59067;DHT22;44854;50.838;4.438;2024-03-29T16:04:56;16.80;99.90
59067;DHT22;44854;50.838;4.438;2024-03-29T16:07:22;16.90;99.90
59067;DHT22;44854;50.838;4.438;2024-03-29T16:09:47;16.80;99.90
59067;DHT22;44854;50.838;4.438;2024-03-29T16:12:13;16.60;99.90
59067;DHT22;44854;50.838;4.438;2024-03-29T16:14:39;16.70;99.90
59067;DHT22;44854;50.838;4.438;2024-03-29T16:17:05;16.80;99.90
59067;DHT22;44854;50.838;4.438;2024-03-29T16:19:31;16.80;99.90
59067;DHT22;44854;50.838;4.438;2024-03-29T16:21:56;16.70;99.90
59067;DHT22;44854;50.838;4.438;2024-03-29T16:24:22;16.60;99.90
59067;DHT22;44854;50.838;4.438;2024-03-29T16:26:48;16.70;99.90
59067;DHT22;44854;50.838;4.438;2024-03-29T16:29:14;16.80;99.90
59067;DHT22;44854;50.838;4.438;2024-03-29T16:31:40;16.70;99.90
59067;DHT22;44854;50.838;4.438;2024-03-29T16:34:06;16.60;99.90
59067;DHT22;44854;50.838;4.438;2024-03-29T16:36:32;16.60;99.90
59067;DHT22;44854;50.838;4.438;2024-03-29T16:38:57;16.70;99.90
59067;DHT22;44854;50.838;4.438;2024-03-29T16:41:23;16.70;99.90
59067;DHT22;44854;50.838;4.438;2024-03-29T16:43:49;16.80;99.90
59067;DHT22;44854;50.838;4.438;2024-03-29T16:46:15;16.70;99.90
59067;DHT22;44854;50.838;4.438;2024-03-29T16:48:40;16.70;99.90
59067;DHT22;44854;50.838;4.438;2024-03-29T16:51:06;16.50;99.90
59067;DHT22;44854;50.838;4.438;2024-03-29T16:53:33;16.30;99.90
59067;DHT22;44854;50.838;4.438;2024-03-29T16:55:59;16.20;99.90
59067;DHT22;44854;50.838;4.438;2024-03-29T16:58:25;16.20;99.90
59067;DHT22;44854;50.838;4.438;2024-03-29T17:00:53;16.20;99.90
59067;DHT22;44854;50.838;4.438;2024-03-29T17:03:19;16.20;99.90
59067;DHT22;44854;50.838;4.438;2024-03-29T17:05:44;16.30;99.90
59067;DHT22;44854;50.838;4.438;2024-03-29T17:08:10;16.30;99.90
59067;DHT22;44854;50.838;4.438;2024-03-29T17:10:36;16.30;99.90
59067;DHT22;44854;50.838;4.438;2024-03-29T17:13:01;16.20;99.90
59067;DHT22;44854;50.838;4.438;2024-03-29T17:15:28;16.30;99.90
59067;DHT22;44854;50.838;4.438;2024-03-29T17:17:54;16.30;99.90
59067;DHT22;44854;50.838;4.438;2024-03-29T17:20:19;16.30;99.90
59067;DHT22;44854;50.838;4.438;2024-03-29T17:22:45;16.20;99.90
59067;DHT22;44854;50.838;4.438;2024-03-29T17:25:11;16.10;99.90
59067;DHT22;44854;50.838;4.438;2024-03-29T17:27:37;16.10;99.90
59067;DHT22;44854;50.838;4.438;2024-03-29T17:30:04;16.10;99.90
59067;DHT22;44854;50.838;4.438;2024-03-29T17:32:30;16.00;99.90
59067;DHT22;44854;50.838;4.438;2024-03-29T17:34:55;16.00;99.90
59067;DHT22;44854;50.838;4.438;2024-03-29T17:37:21;16.00;99.90
59067;DHT22;44854;50.838;4.438;2024-03-29T17:39:47;16.10;99.90
59067;DHT22;44854;50.838;4.438;2024-03-29T17:42:12;16.00;99.90
59067;DHT22;44854;50.838;4.438;2024-03-29T17:44:38;16.10;99.90
59067;DHT22;44854;50.838;4.438;2024-03-29T17:47:04;16.20;99.90
59067;DHT22;44854;50.838;4.438;2024-03-29T17:49:30;16.20;99.90
59067;DHT22;44854;50.838;4.438;2024-03-29T17:51:55;16.10;99.90
59067;DHT22;44854;50.838;4.438;2024-03-29T17:54:21;15.90;99.90
59067;DHT22;44854;50.838;4.438;2024-03-29T17:56:47;15.90;99.90
59067;DHT22;44854;50.838;4.438;2024-03-29T17:59:13;15.90;99.90
59067;DHT22;44854;50.838;4.438;2024-03-29T18:01:41;15.90;99.90
59067;DHT22;44854;50.838;4.438;2024-03-29T18:04:08;15.80;99.90
59067;DHT22;44854;50.838;4.438;2024-03-29T18:06:34;15.70;99.90
59067;DHT22;44854;50.838;4.438;2024-03-29T18:09:00;15.70;99.90
59067;DHT22;44854;50.838;4.438;2024-03-29T18:11:26;15.70;99.90
59067;DHT22;44854;50.838;4.438;2024-03-29T18:13:51;15.70;99.90
59067;DHT22;44854;50.838;4.438;2024-03-29T18:16:19;15.70;99.90
59067;DHT22;44854;50.838;4.438;2024-03-29T18:18:46;15.60;99.90
59067;DHT22;44854;50.838;4.438;2024-03-29T18:21:13;15.60;99.90
59067;DHT22;44854;50.838;4.438;2024-03-29T18:23:38;15.60;99.90
59067;DHT22;44854;50.838;4.438;2024-03-29T18:26:04;15.60;99.90
59067;DHT22;44854;50.838;4.438;2024-03-29T18:28:30;15.50;99.90
59067;DHT22;44854;50.838;4.438;2024-03-29T18:30:56;15.50;99.90
59067;DHT22;44854;50.838;4.438;2024-03-29T18:33:22;15.50;99.90
59067;DHT22;44854;50.838;4.438;2024-03-29T18:35:48;15.40;99.90
59067;DHT22;44854;50.838;4.438;2024-03-29T18:38:14;15.30;99.90
59067;DHT22;44854;50.838;4.438;2024-03-29T18:40:40;15.20;99.90
59067;DHT22;44854;50.838;4.438;2024-03-29T18:43:05;15.20;99.90
59067;DHT22;44854;50.838;4.438;2024-03-29T18:45:36;15.20;99.90
59067;DHT22;44854;50.838;4.438;2024-03-29T18:48:02;15.00;99.90
59067;DHT22;44854;50.838;4.438;2024-03-29T18:50:28;14.90;99.90
59067;DHT22;44854;50.838;4.438;2024-03-29T18:52:53;14.90;99.90
59067;DHT22;44854;50.838;4.438;2024-03-29T18:55:19;14.90;99.90
59067;DHT22;44854;50.838;4.438;2024-03-29T18:57:45;14.80;99.90
59067;DHT22;44854;50.838;4.438;2024-03-29T19:00:11;14.80;99.90
59067;DHT22;44854;50.838;4.438;2024-03-29T19:02:37;14.80;99.90
59067;DHT22;44854;50.838;4.438;2024-03-29T19:05:03;14.80;99.90
59067;DHT22;44854;50.838;4.438;2024-03-29T19:07:29;14.80;99.90
59067;DHT22;44854;50.838;4.438;2024-03-29T19:09:54;14.90;99.90
59067;DHT22;44854;50.838;4.438;2024-03-29T19:12:20;15.00;99.90
59067;DHT22;44854;50.838;4.438;2024-03-29T19:14:48;14.90;99.90
59067;DHT22;44854;50.838;4.438;2024-03-29T19:17:17;14.80;99.90
59067;DHT22;44854;50.838;4.438;2024-03-29T19:19:43;14.80;99.90
59067;DHT22;44854;50.838;4.438;2024-03-29T19:22:09;14.70;99.90
59067;DHT22;44854;50.838;4.438;2024-03-29T19:24:35;14.60;99.90
59067;DHT22;44854;50.838;4.438;2024-03-29T19:27:02;14.60;99.90
59067;DHT22;44854;50.838;4.438;2024-03-29T19:29:27;14.50;99.90
59067;DHT22;44854;50.838;4.438;2024-03-29T19:31:53;14.50;99.90
59067;DHT22;44854;50.838;4.438;2024-03-29T19:34:19;14.50;99.90
59067;DHT22;44854;50.838;4.438;2024-03-29T19:36:46;14.50;99.90
59067;DHT22;44854;50.838;4.438;2024-03-29T19:39:13;14.50;99.90
59067;DHT22;44854;50.838;4.438;2024-03-29T19:41:40;14.50;99.90
59067;DHT22;44854;50.838;4.438;2024-03-29T19:44:06;14.50;99.90
59067;DHT22;44854;50.838;4.438;2024-03-29T19:46:33;14.50;99.90
59067;DHT22;44854;50.838;4.438;2024-03-29T19:49:00;14.50;99.90
59067;DHT22;44854;50.838;4.438;2024-03-29T19:51:27;14.50;99.90
59067;DHT22;44854;50.838;4.438;2024-03-29T19:53:53;14.50;99.90
59067;DHT22;44854;50.838;4.438;2024-03-29T19:56:19;14.60;99.90
59067;DHT22;44854;50.838;4.438;2024-03-29T19:58:51;14.40;99.90
59067;DHT22;44854;50.838;4.438;2024-03-29T20:01:17;14.40;99.90
59067;DHT22;44854;50.838;4.438;2024-03-29T20:03:43;14.30;99.90
59067;DHT22;44854;50.838;4.438;2024-03-29T20:06:09;14.40;99.90
59067;DHT22;44854;50.838;4.438;2024-03-29T20:08:34;14.30;99.90
59067;DHT22;44854;50.838;4.438;2024-03-29T20:11:00;14.40;99.90
59067;DHT22;44854;50.838;4.438;2024-03-29T20:13:26;14.30;99.90
59067;DHT22;44854;50.838;4.438;2024-03-29T20:15:52;14.30;99.90
59067;DHT22;44854;50.838;4.438;2024-03-29T20:18:17;14.30;99.90
59067;DHT22;44854;50.838;4.438;2024-03-29T20:20:47;14.20;99.90
59067;DHT22;44854;50.838;4.438;2024-03-29T20:23:13;14.20;99.90
59067;DHT22;44854;50.838;4.438;2024-03-29T20:25:39;14.00;99.90
59067;DHT22;44854;50.838;4.438;2024-03-29T20:28:05;14.00;99.90
59067;DHT22;44854;50.838;4.438;2024-03-29T20:30:31;14.10;99.90
59067;DHT22;44854;50.838;4.438;2024-03-29T20:32:58;14.00;99.90
59067;DHT22;44854;50.838;4.438;2024-03-29T20:35:24;13.80;99.90
59067;DHT22;44854;50.838;4.438;2024-03-29T20:37:50;13.70;99.90
59067;DHT22;44854;50.838;4.438;2024-03-29T20:40:16;13.60;99.90
59067;DHT22;44854;50.838;4.438;2024-03-29T20:42:42;13.50;99.90
59067;DHT22;44854;50.838;4.438;2024-03-29T20:45:08;13.60;99.90
59067;DHT22;44854;50.838;4.438;2024-03-29T20:47:36;13.50;99.90